sensor_id;sensor_type;location;lat;lon;timestamp;P1;durP1;ratioP1;P2;durP2;ratioP2
9254;SDS011;4663;49.120;9.730;2023-10-13T00:00:55;12.02;;;9.07;;
9254;SDS011;4663;49.120;9.730;2023-10-13T00:03:23;14.77;;;9.10;;
9254;SDS011;4663;49.120;9.730;2023-10-13T00:05:48;10.68;;;8.80;;
9254;SDS011;4663;49.120;9.730;2023-10-13T00:08:17;14.27;;;9.00;;
9254;SDS011;4663;49.120;9.730;2023-10-13T00:10:45;13.80;;;9.02;;
9254;SDS011;4663;49.120;9.730;2023-10-13T00:13:12;12.95;;;9.18;;
9254;SDS011;4663;49.120;9.730;2023-10-13T00:15:42;10.50;;;8.32;;
9254;SDS011;4663;49.120;9.730;2023-10-13T00:18:25;14.93;;;9.70;;
9254;SDS011;4663;49.120;9.730;2023-10-13T00:21:00;15.30;;;9.07;;
9254;SDS011;4663;49.120;9.730;2023-10-13T00:23:37;13.23;;;9.15;;
9254;SDS011;4663;49.120;9.730;2023-10-13T00:26:22;12.55;;;8.55;;
9254;SDS011;4663;49.120;9.730;2023-10-13T00:28:56;12.07;;;9.45;;
9254;SDS011;4663;49.120;9.730;2023-10-13T00:31:32;12.38;;;9.27;;
9254;SDS011;4663;49.120;9.730;2023-10-13T00:34:01;11.48;;;9.40;;
9254;SDS011;4663;49.120;9.730;2023-10-13T00:36:43;12.55;;;9.52;;
9254;SDS011;4663;49.120;9.730;2023-10-13T00:39:35;11.02;;;9.30;;
9254;SDS011;4663;49.120;9.730;2023-10-13T00:42:02;11.88;;;9.68;;
9254;SDS011;4663;49.120;9.730;2023-10-13T00:44:32;14.35;;;9.50;;
9254;SDS011;4663;49.120;9.730;2023-10-13T00:47:08;13.57;;;10.27;;
9254;SDS011;4663;49.120;9.730;2023-10-13T00:49:34;11.75;;;9.48;;
9254;SDS011;4663;49.120;9.730;2023-10-13T00:52:05;12.60;;;8.57;;
9254;SDS011;4663;49.120;9.730;2023-10-13T00:54:31;13.35;;;9.43;;
9254;SDS011;4663;49.120;9.730;2023-10-13T00:57:00;12.15;;;8.98;;
9254;SDS011;4663;49.120;9.730;2023-10-13T00:59:51;11.48;;;9.43;;
9254;SDS011;4663;49.120;9.730;2023-10-13T01:02:23;11.23;;;8.50;;
9254;SDS011;4663;49.120;9.730;2023-10-13T01:05:01;10.90;;;7.93;;
9254;SDS011;4663;49.120;9.730;2023-10-13T01:07:28;11.60;;;8.88;;
9254;SDS011;4663;49.120;9.730;2023-10-13T01:09:53;11.27;;;8.55;;
9254;SDS011;4663;49.120;9.730;2023-10-13T01:12:19;10.85;;;7.97;;
9254;SDS011;4663;49.120;9.730;2023-10-13T01:14:45;11.32;;;8.48;;
9254;SDS011;4663;49.120;9.730;2023-10-13T01:17:11;19.73;;;10.38;;
9254;SDS011;4663;49.120;9.730;2023-10-13T01:19:36;11.50;;;8.73;;
9254;SDS011;4663;49.120;9.730;2023-10-13T01:22:08;9.40;;;8.30;;
9254;SDS011;4663;49.120;9.730;2023-10-13T01:24:33;13.13;;;8.98;;
9254;SDS011;4663;49.120;9.730;2023-10-13T01:27:00;12.10;;;8.52;;
9254;SDS011;4663;49.120;9.730;2023-10-13T01:29:48;12.02;;;8.40;;
9254;SDS011;4663;49.120;9.730;2023-10-13T01:32:17;13.60;;;9.85;;
9254;SDS011;4663;49.120;9.730;2023-10-13T01:34:44;13.80;;;9.80;;
9254;SDS011;4663;49.120;9.730;2023-10-13T01:37:13;14.60;;;9.93;;
9254;SDS011;4663;49.120;9.730;2023-10-13T01:39:38;15.50;;;10.05;;
9254;SDS011;4663;49.120;9.730;2023-10-13T01:42:03;15.63;;;11.85;;
9254;SDS011;4663;49.120;9.730;2023-10-13T01:44:31;15.40;;;10.57;;
9254;SDS011;4663;49.120;9.730;2023-10-13T01:46:57;13.85;;;10.45;;
9254;SDS011;4663;49.120;9.730;2023-10-13T01:49:32;15.65;;;9.95;;
9254;SDS011;4663;49.120;9.730;2023-10-13T01:52:08;14.00;;;10.40;;
9254;SDS011;4663;49.120;9.730;2023-10-13T01:54:36;15.85;;;10.45;;
9254;SDS011;4663;49.120;9.730;2023-10-13T01:57:06;14.00;;;10.65;;
9254;SDS011;4663;49.120;9.730;2023-10-13T01:59:32;15.60;;;11.50;;
9254;SDS011;4663;49.120;9.730;2023-10-13T02:01:57;14.05;;;10.98;;
9254;SDS011;4663;49.120;9.730;2023-10-13T02:04:25;14.65;;;10.65;;
9254;SDS011;4663;49.120;9.730;2023-10-13T02:06:52;13.48;;;10.95;;
9254;SDS011;4663;49.120;9.730;2023-10-13T02:09:17;15.07;;;10.45;;
9254;SDS011;4663;49.120;9.730;2023-10-13T02:11:50;13.60;;;10.23;;
9254;SDS011;4663;49.120;9.730;2023-10-13T02:14:20;16.27;;;11.10;;
9254;SDS011;4663;49.120;9.730;2023-10-13T02:16:48;13.95;;;10.43;;
9254;SDS011;4663;49.120;9.730;2023-10-13T02:19:15;13.48;;;10.50;;
9254;SDS011;4663;49.120;9.730;2023-10-13T02:21:42;13.25;;;10.07;;
9254;SDS011;4663;49.120;9.730;2023-10-13T02:24:09;15.30;;;11.52;;
9254;SDS011;4663;49.120;9.730;2023-10-13T02:26:38;17.27;;;11.20;;
9254;SDS011;4663;49.120;9.730;2023-10-13T02:29:06;17.13;;;10.65;;
9254;SDS011;4663;49.120;9.730;2023-10-13T02:31:43;14.38;;;10.60;;
9254;SDS011;4663;49.120;9.730;2023-10-13T02:34:19;16.80;;;10.90;;
9254;SDS011;4663;49.120;9.730;2023-10-13T02:36:44;13.75;;;10.50;;
9254;SDS011;4663;49.120;9.730;2023-10-13T02:39:14;14.95;;;10.98;;
9254;SDS011;4663;49.120;9.730;2023-10-13T02:41:51;14.93;;;10.50;;
9254;SDS011;4663;49.120;9.730;2023-10-13T02:44:17;16.98;;;10.23;;
9254;SDS011;4663;49.120;9.730;2023-10-13T02:46:55;16.70;;;10.73;;
9254;SDS011;4663;49.120;9.730;2023-10-13T02:49:24;14.30;;;10.50;;
9254;SDS011;4663;49.120;9.730;2023-10-13T02:51:51;13.32;;;10.23;;
9254;SDS011;4663;49.120;9.730;2023-10-13T02:54:18;18.05;;;10.93;;
9254;SDS011;4663;49.120;9.730;2023-10-13T02:56:44;14.80;;;10.80;;
9254;SDS011;4663;49.120;9.730;2023-10-13T02:59:28;12.50;;;10.23;;
9254;SDS011;4663;49.120;9.730;2023-10-13T03:02:12;14.65;;;9.90;;
9254;SDS011;4663;49.120;9.730;2023-10-13T03:04:56;12.68;;;9.50;;
9254;SDS011;4663;49.120;9.730;2023-10-13T03:07:25;17.55;;;10.35;;
9254;SDS011;4663;49.120;9.730;2023-10-13T03:09:53;12.35;;;10.00;;
9254;SDS011;4663;49.120;9.730;2023-10-13T03:12:22;13.23;;;10.05;;
9254;SDS011;4663;49.120;9.730;2023-10-13T03:14:49;15.85;;;10.38;;
9254;SDS011;4663;49.120;9.730;2023-10-13T03:17:22;13.20;;;10.93;;
9254;SDS011;4663;49.120;9.730;2023-10-13T03:19:58;23.02;;;12.10;;
9254;SDS011;4663;49.120;9.730;2023-10-13T03:22:24;18.10;;;11.88;;
9254;SDS011;4663;49.120;9.730;2023-10-13T03:24:57;15.50;;;11.27;;
9254;SDS011;4663;49.120;9.730;2023-10-13T03:27:34;17.90;;;11.82;;
9254;SDS011;4663;49.120;9.730;2023-10-13T03:30:26;16.00;;;11.05;;
9254;SDS011;4663;49.120;9.730;2023-10-13T03:33:03;14.13;;;10.77;;
9254;SDS011;4663;49.120;9.730;2023-10-13T03:35:53;11.88;;;9.65;;
9254;SDS011;4663;49.120;9.730;2023-10-13T03:38:19;14.20;;;11.15;;
9254;SDS011;4663;49.120;9.730;2023-10-13T03:40:46;16.38;;;10.98;;
9254;SDS011;4663;49.120;9.730;2023-10-13T03:43:21;14.27;;;11.35;;
9254;SDS011;4663;49.120;9.730;2023-10-13T03:45:49;13.23;;;9.77;;
9254;SDS011;4663;49.120;9.730;2023-10-13T03:48:25;11.98;;;9.55;;
9254;SDS011;4663;49.120;9.730;2023-10-13T03:50:55;18.23;;;11.48;;
9254;SDS011;4663;49.120;9.730;2023-10-13T03:53:40;13.05;;;10.57;;
9254;SDS011;4663;49.120;9.730;2023-10-13T03:56:18;11.15;;;9.05;;
9254;SDS011;4663;49.120;9.730;2023-10-13T03:58:51;14.95;;;9.95;;
9254;SDS011;4663;49.120;9.730;2023-10-13T04:01:38;13.85;;;9.50;;
9254;SDS011;4663;49.120;9.730;2023-10-13T04:04:33;12.43;;;8.75;;
9254;SDS011;4663;49.120;9.730;2023-10-13T04:07:13;14.73;;;10.57;;
9254;SDS011;4663;49.120;9.730;2023-10-13T04:09:59;13.27;;;10.15;;
9254;SDS011;4663;49.120;9.730;2023-10-13T04:12:43;12.82;;;9.75;;
9254;SDS011;4663;49.120;9.730;2023-10-13T04:15:38;16.08;;;10.77;;
9254;SDS011;4663;49.120;9.730;2023-10-13T04:18:23;18.02;;;11.13;;
9254;SDS011;4663;49.120;9.730;2023-10-13T04:21:15;14.65;;;11.27;;
9254;SDS011;4663;49.120;9.730;2023-10-13T04:23:58;14.27;;;10.35;;
9254;SDS011;4663;49.120;9.730;2023-10-13T04:26:42;15.77;;;11.05;;
9254;SDS011;4663;49.120;9.730;2023-10-13T04:29:31;14.40;;;10.82;;
9254;SDS011;4663;49.120;9.730;2023-10-13T04:32:15;19.23;;;11.77;;
9254;SDS011;4663;49.120;9.730;2023-10-13T04:34:53;15.13;;;10.77;;
9254;SDS011;4663;49.120;9.730;2023-10-13T04:37:33;14.25;;;10.45;;
9254;SDS011;4663;49.120;9.730;2023-10-13T04:40:13;13.85;;;10.02;;
9254;SDS011;4663;49.120;9.730;2023-10-13T04:42:39;12.60;;;10.93;;
9254;SDS011;4663;49.120;9.730;2023-10-13T04:45:14;13.63;;;10.82;;
9254;SDS011;4663;49.120;9.730;2023-10-13T04:47:55;13.90;;;10.57;;
9254;SDS011;4663;49.120;9.730;2023-10-13T04:50:38;16.05;;;10.90;;
9254;SDS011;4663;49.120;9.730;2023-10-13T04:53:13;14.77;;;10.52;;
9254;SDS011;4663;49.120;9.730;2023-10-13T04:55:57;14.45;;;10.60;;
9254;SDS011;4663;49.120;9.730;2023-10-13T04:58:42;14.38;;;10.50;;
9254;SDS011;4663;49.120;9.730;2023-10-13T05:01:27;16.77;;;10.63;;
9254;SDS011;4663;49.120;9.730;2023-10-13T05:03:53;14.98;;;10.45;;
9254;SDS011;4663;49.120;9.730;2023-10-13T05:06:19;15.07;;;10.27;;
9254;SDS011;4663;49.120;9.730;2023-10-13T05:09:07;14.88;;;10.82;;
9254;SDS011;4663;49.120;9.730;2023-10-13T05:11:51;17.60;;;10.93;;
9254;SDS011;4663;49.120;9.730;2023-10-13T05:14:35;17.38;;;10.73;;
9254;SDS011;4663;49.120;9.730;2023-10-13T05:17:19;17.00;;;10.80;;
9254;SDS011;4663;49.120;9.730;2023-10-13T05:20:02;15.15;;;10.68;;
9254;SDS011;4663;49.120;9.730;2023-10-13T05:22:47;14.93;;;10.38;;
9254;SDS011;4663;49.120;9.730;2023-10-13T05:25:34;15.77;;;11.02;;
9254;SDS011;4663;49.120;9.730;2023-10-13T05:28:18;15.30;;;10.60;;
9254;SDS011;4663;49.120;9.730;2023-10-13T05:31:02;13.15;;;9.75;;
9254;SDS011;4663;49.120;9.730;2023-10-13T05:33:46;12.40;;;10.40;;
9254;SDS011;4663;49.120;9.730;2023-10-13T05:36:30;15.07;;;10.32;;
9254;SDS011;4663;49.120;9.730;2023-10-13T05:39:14;14.63;;;10.38;;
9254;SDS011;4663;49.120;9.730;2023-10-13T05:42:00;14.75;;;10.50;;
9254;SDS011;4663;49.120;9.730;2023-10-13T05:44:43;17.92;;;11.02;;
9254;SDS011;4663;49.120;9.730;2023-10-13T05:47:22;15.82;;;10.32;;
9254;SDS011;4663;49.120;9.730;2023-10-13T05:50:08;14.73;;;10.40;;
9254;SDS011;4663;49.120;9.730;2023-10-13T05:52:46;17.25;;;11.13;;
9254;SDS011;4663;49.120;9.730;2023-10-13T05:55:25;16.27;;;11.02;;
9254;SDS011;4663;49.120;9.730;2023-10-13T05:58:13;15.43;;;9.98;;
9254;SDS011;4663;49.120;9.730;2023-10-13T06:00:57;11.60;;;9.55;;
9254;SDS011;4663;49.120;9.730;2023-10-13T06:03:41;13.88;;;10.93;;
9254;SDS011;4663;49.120;9.730;2023-10-13T06:06:26;16.00;;;10.88;;
9254;SDS011;4663;49.120;9.730;2023-10-13T06:09:10;16.83;;;11.10;;
9254;SDS011;4663;49.120;9.730;2023-10-13T06:11:54;13.05;;;10.02;;
9254;SDS011;4663;49.120;9.730;2023-10-13T06:14:38;14.63;;;10.38;;
9254;SDS011;4663;49.120;9.730;2023-10-13T06:17:22;13.10;;;10.60;;
9254;SDS011;4663;49.120;9.730;2023-10-13T06:20:06;14.55;;;10.57;;
9254;SDS011;4663;49.120;9.730;2023-10-13T06:22:51;15.13;;;9.60;;
9254;SDS011;4663;49.120;9.730;2023-10-13T06:25:35;13.98;;;10.63;;
9254;SDS011;4663;49.120;9.730;2023-10-13T06:28:19;17.00;;;10.23;;
9254;SDS011;4663;49.120;9.730;2023-10-13T06:31:04;14.38;;;9.43;;
9254;SDS011;4663;49.120;9.730;2023-10-13T06:33:33;15.02;;;10.35;;
9254;SDS011;4663;49.120;9.730;2023-10-13T06:36:02;16.20;;;10.38;;
9254;SDS011;4663;49.120;9.730;2023-10-13T06:38:29;12.68;;;10.38;;
9254;SDS011;4663;49.120;9.730;2023-10-13T06:41:01;12.52;;;9.30;;
9254;SDS011;4663;49.120;9.730;2023-10-13T06:43:31;13.43;;;9.75;;
9254;SDS011;4663;49.120;9.730;2023-10-13T06:46:06;11.60;;;8.57;;
9254;SDS011;4663;49.120;9.730;2023-10-13T06:48:32;11.43;;;8.35;;
9254;SDS011;4663;49.120;9.730;2023-10-13T06:51:00;11.18;;;9.13;;
9254;SDS011;4663;49.120;9.730;2023-10-13T06:53:31;10.20;;;8.10;;
9254;SDS011;4663;49.120;9.730;2023-10-13T06:56:05;14.48;;;8.13;;
9254;SDS011;4663;49.120;9.730;2023-10-13T06:58:31;12.18;;;8.60;;
9254;SDS011;4663;49.120;9.730;2023-10-13T07:00:57;10.38;;;8.27;;
9254;SDS011;4663;49.120;9.730;2023-10-13T07:03:24;11.23;;;8.02;;
9254;SDS011;4663;49.120;9.730;2023-10-13T07:05:50;11.38;;;8.18;;
9254;SDS011;4663;49.120;9.730;2023-10-13T07:08:16;13.02;;;7.90;;
9254;SDS011;4663;49.120;9.730;2023-10-13T07:10:51;11.20;;;7.97;;
9254;SDS011;4663;49.120;9.730;2023-10-13T07:13:27;10.43;;;7.03;;
9254;SDS011;4663;49.120;9.730;2023-10-13T07:15:56;10.35;;;6.78;;
9254;SDS011;4663;49.120;9.730;2023-10-13T07:18:27;9.18;;;7.43;;
9254;SDS011;4663;49.120;9.730;2023-10-13T07:21:00;9.38;;;7.93;;
9254;SDS011;4663;49.120;9.730;2023-10-13T07:23:34;9.75;;;7.22;;
9254;SDS011;4663;49.120;9.730;2023-10-13T07:26:01;11.73;;;7.35;;
9254;SDS011;4663;49.120;9.730;2023-10-13T07:28:30;10.13;;;6.30;;
9254;SDS011;4663;49.120;9.730;2023-10-13T07:30:56;7.78;;;6.53;;
9254;SDS011;4663;49.120;9.730;2023-10-13T07:33:25;9.27;;;6.13;;
9254;SDS011;4663;49.120;9.730;2023-10-13T07:38:26;8.10;;;5.05;;
9254;SDS011;4663;49.120;9.730;2023-10-13T07:40:55;7.30;;;5.38;;
9254;SDS011;4663;49.120;9.730;2023-10-13T07:43:25;8.40;;;5.70;;
9254;SDS011;4663;49.120;9.730;2023-10-13T07:45:52;10.88;;;5.57;;
9254;SDS011;4663;49.120;9.730;2023-10-13T07:48:23;5.97;;;5.03;;
9254;SDS011;4663;49.120;9.730;2023-10-13T07:51:00;10.45;;;5.53;;
9254;SDS011;4663;49.120;9.730;2023-10-13T07:53:28;7.50;;;5.00;;
9254;SDS011;4663;49.120;9.730;2023-10-13T07:55:59;8.70;;;4.80;;
9254;SDS011;4663;49.120;9.730;2023-10-13T07:58:30;6.15;;;4.82;;
9254;SDS011;4663;49.120;9.730;2023-10-13T08:00:56;10.90;;;5.15;;
9254;SDS011;4663;49.120;9.730;2023-10-13T08:03:25;8.55;;;4.70;;
9254;SDS011;4663;49.120;9.730;2023-10-13T08:05:59;8.65;;;4.18;;
9254;SDS011;4663;49.120;9.730;2023-10-13T08:08:37;6.35;;;4.22;;
9254;SDS011;4663;49.120;9.730;2023-10-13T08:11:10;5.32;;;3.63;;
9254;SDS011;4663;49.120;9.730;2023-10-13T08:13:57;6.80;;;4.30;;
9254;SDS011;4663;49.120;9.730;2023-10-13T08:16:36;7.95;;;4.35;;
9254;SDS011;4663;49.120;9.730;2023-10-13T08:19:14;7.50;;;4.28;;
9254;SDS011;4663;49.120;9.730;2023-10-13T08:21:41;6.82;;;3.95;;
9254;SDS011;4663;49.120;9.730;2023-10-13T08:24:16;5.43;;;3.88;;
9254;SDS011;4663;49.120;9.730;2023-10-13T08:26:49;5.65;;;3.75;;
9254;SDS011;4663;49.120;9.730;2023-10-13T08:29:42;7.55;;;3.83;;
9254;SDS011;4663;49.120;9.730;2023-10-13T08:32:23;7.30;;;3.95;;
9254;SDS011;4663;49.120;9.730;2023-10-13T08:34:52;5.25;;;3.67;;
9254;SDS011;4663;49.120;9.730;2023-10-13T08:37:34;6.60;;;4.68;;
9254;SDS011;4663;49.120;9.730;2023-10-13T08:40:23;9.07;;;3.50;;
9254;SDS011;4663;49.120;9.730;2023-10-13T08:43:10;6.70;;;3.42;;
9254;SDS011;4663;49.120;9.730;2023-10-13T08:45:37;4.20;;;3.47;;
9254;SDS011;4663;49.120;9.730;2023-10-13T08:48:10;4.93;;;3.60;;
9254;SDS011;4663;49.120;9.730;2023-10-13T08:50:37;10.90;;;3.50;;
9254;SDS011;4663;49.120;9.730;2023-10-13T08:53:18;4.68;;;3.45;;
9254;SDS011;4663;49.120;9.730;2023-10-13T08:58:30;5.55;;;2.85;;
9254;SDS011;4663;49.120;9.730;2023-10-13T09:01:14;6.50;;;3.60;;
9254;SDS011;4663;49.120;9.730;2023-10-13T09:04:02;7.22;;;3.20;;
9254;SDS011;4663;49.120;9.730;2023-10-13T09:06:59;7.32;;;3.78;;
9254;SDS011;4663;49.120;9.730;2023-10-13T09:09:48;5.20;;;3.50;;
9254;SDS011;4663;49.120;9.730;2023-10-13T09:12:35;5.10;;;3.45;;
9254;SDS011;4663;49.120;9.730;2023-10-13T09:17:31;6.20;;;3.28;;
9254;SDS011;4663;49.120;9.730;2023-10-13T09:20:06;4.82;;;3.28;;
9254;SDS011;4663;49.120;9.730;2023-10-13T09:22:50;6.88;;;3.22;;
9254;SDS011;4663;49.120;9.730;2023-10-13T09:25:31;4.90;;;3.33;;
9254;SDS011;4663;49.120;9.730;2023-10-13T09:28:22;6.55;;;3.30;;
9254;SDS011;4663;49.120;9.730;2023-10-13T09:30:51;6.18;;;3.35;;
9254;SDS011;4663;49.120;9.730;2023-10-13T09:33:24;5.70;;;3.10;;
9254;SDS011;4663;49.120;9.730;2023-10-13T09:35:58;6.57;;;3.45;;
9254;SDS011;4663;49.120;9.730;2023-10-13T09:38:25;4.28;;;2.90;;
9254;SDS011;4663;49.120;9.730;2023-10-13T09:40:52;5.20;;;3.05;;
9254;SDS011;4663;49.120;9.730;2023-10-13T09:43:22;6.20;;;3.00;;
9254;SDS011;4663;49.120;9.730;2023-10-13T09:45:48;4.30;;;2.90;;
9254;SDS011;4663;49.120;9.730;2023-10-13T09:48:43;3.80;;;2.78;;
9254;SDS011;4663;49.120;9.730;2023-10-13T09:51:18;7.25;;;3.25;;
9254;SDS011;4663;49.120;9.730;2023-10-13T09:53:55;9.20;;;2.67;;
9254;SDS011;4663;49.120;9.730;2023-10-13T09:56:27;3.25;;;2.70;;
9254;SDS011;4663;49.120;9.730;2023-10-13T09:59:06;4.70;;;2.50;;
9254;SDS011;4663;49.120;9.730;2023-10-13T10:01:41;5.45;;;2.33;;
9254;SDS011;4663;49.120;9.730;2023-10-13T10:04:16;5.65;;;2.75;;
9254;SDS011;4663;49.120;9.730;2023-10-13T10:06:57;5.28;;;2.80;;
9254;SDS011;4663;49.120;9.730;2023-10-13T10:09:30;6.60;;;2.60;;
9254;SDS011;4663;49.120;9.730;2023-10-13T10:17:45;3.30;;;2.25;;
9254;SDS011;4663;49.120;9.730;2023-10-13T10:20:11;6.78;;;2.67;;
9254;SDS011;4663;49.120;9.730;2023-10-13T10:22:59;4.30;;;2.03;;
9254;SDS011;4663;49.120;9.730;2023-10-13T10:25:31;8.95;;;2.67;;
9254;SDS011;4663;49.120;9.730;2023-10-13T10:28:04;5.18;;;2.53;;
9254;SDS011;4663;49.120;9.730;2023-10-13T10:30:31;4.32;;;2.47;;
9254;SDS011;4663;49.120;9.730;2023-10-13T10:32:59;6.28;;;2.45;;
9254;SDS011;4663;49.120;9.730;2023-10-13T10:35:26;7.78;;;3.22;;
9254;SDS011;4663;49.120;9.730;2023-10-13T10:37:58;3.78;;;2.55;;
9254;SDS011;4663;49.120;9.730;2023-10-13T10:43:29;6.97;;;2.70;;
9254;SDS011;4663;49.120;9.730;2023-10-13T10:46:25;5.25;;;2.88;;
9254;SDS011;4663;49.120;9.730;2023-10-13T10:48:55;4.07;;;2.30;;
9254;SDS011;4663;49.120;9.730;2023-10-13T10:51:27;5.35;;;2.70;;
9254;SDS011;4663;49.120;9.730;2023-10-13T10:53:57;5.90;;;2.67;;
9254;SDS011;4663;49.120;9.730;2023-10-13T10:56:36;5.13;;;2.47;;
9254;SDS011;4663;49.120;9.730;2023-10-13T10:59:01;4.90;;;2.58;;
9254;SDS011;4663;49.120;9.730;2023-10-13T11:01:29;5.93;;;2.50;;
9254;SDS011;4663;49.120;9.730;2023-10-13T11:04:02;3.83;;;2.40;;
9254;SDS011;4663;49.120;9.730;2023-10-13T11:06:50;8.27;;;2.85;;
9254;SDS011;4663;49.120;9.730;2023-10-13T11:09:23;4.05;;;2.40;;
9254;SDS011;4663;49.120;9.730;2023-10-13T11:11:52;3.75;;;2.13;;
9254;SDS011;4663;49.120;9.730;2023-10-13T11:14:22;4.38;;;2.28;;
9254;SDS011;4663;49.120;9.730;2023-10-13T11:16:53;4.47;;;2.13;;
9254;SDS011;4663;49.120;9.730;2023-10-13T11:19:20;6.13;;;2.20;;
9254;SDS011;4663;49.120;9.730;2023-10-13T11:24:57;5.80;;;2.17;;
9254;SDS011;4663;49.120;9.730;2023-10-13T11:27:34;6.95;;;2.90;;
9254;SDS011;4663;49.120;9.730;2023-10-13T11:30:12;4.40;;;2.80;;
9254;SDS011;4663;49.120;9.730;2023-10-13T11:32:43;6.57;;;2.15;;
9254;SDS011;4663;49.120;9.730;2023-10-13T11:35:11;6.95;;;2.40;;
9254;SDS011;4663;49.120;9.730;2023-10-13T11:37:48;5.18;;;2.40;;
9254;SDS011;4663;49.120;9.730;2023-10-13T11:40:21;5.90;;;2.50;;
9254;SDS011;4663;49.120;9.730;2023-10-13T11:43:07;4.55;;;2.38;;
9254;SDS011;4663;49.120;9.730;2023-10-13T11:45:39;3.63;;;2.72;;
9254;SDS011;4663;49.120;9.730;2023-10-13T11:48:40;7.88;;;2.55;;
9254;SDS011;4663;49.120;9.730;2023-10-13T11:51:11;6.70;;;2.58;;
9254;SDS011;4663;49.120;9.730;2023-10-13T11:53:49;7.03;;;2.38;;
9254;SDS011;4663;49.120;9.730;2023-10-13T11:56:18;5.20;;;3.15;;
9254;SDS011;4663;49.120;9.730;2023-10-13T11:58:48;9.27;;;2.50;;
9254;SDS011;4663;49.120;9.730;2023-10-13T12:01:14;6.55;;;2.35;;
9254;SDS011;4663;49.120;9.730;2023-10-13T12:03:43;5.90;;;2.45;;
9254;SDS011;4663;49.120;9.730;2023-10-13T12:06:28;5.32;;;2.97;;
9254;SDS011;4663;49.120;9.730;2023-10-13T12:09:04;6.47;;;2.50;;
9254;SDS011;4663;49.120;9.730;2023-10-13T12:11:47;4.72;;;2.47;;
9254;SDS011;4663;49.120;9.730;2023-10-13T12:14:16;4.45;;;2.17;;
9254;SDS011;4663;49.120;9.730;2023-10-13T12:16:45;3.13;;;2.10;;
9254;SDS011;4663;49.120;9.730;2023-10-13T12:19:24;4.72;;;2.78;;
9254;SDS011;4663;49.120;9.730;2023-10-13T12:21:52;4.60;;;2.63;;
9254;SDS011;4663;49.120;9.730;2023-10-13T12:24:22;3.83;;;2.08;;
9254;SDS011;4663;49.120;9.730;2023-10-13T12:27:01;4.60;;;2.47;;
9254;SDS011;4663;49.120;9.730;2023-10-13T12:29:27;3.53;;;2.50;;
9254;SDS011;4663;49.120;9.730;2023-10-13T12:31:56;4.68;;;2.20;;
9254;SDS011;4663;49.120;9.730;2023-10-13T12:34:34;4.75;;;2.55;;
9254;SDS011;4663;49.120;9.730;2023-10-13T12:37:41;7.43;;;2.47;;
9254;SDS011;4663;49.120;9.730;2023-10-13T12:40:08;2.42;;;2.00;;
9254;SDS011;4663;49.120;9.730;2023-10-13T12:42:52;4.10;;;2.33;;
9254;SDS011;4663;49.120;9.730;2023-10-13T12:45:39;5.70;;;2.17;;
9254;SDS011;4663;49.120;9.730;2023-10-13T12:48:24;4.93;;;2.35;;
9254;SDS011;4663;49.120;9.730;2023-10-13T12:51:08;4.07;;;2.20;;
9254;SDS011;4663;49.120;9.730;2023-10-13T12:53:50;5.70;;;2.60;;
9254;SDS011;4663;49.120;9.730;2023-10-13T12:56:17;3.67;;;2.53;;
9254;SDS011;4663;49.120;9.730;2023-10-13T12:58:51;6.68;;;2.35;;
9254;SDS011;4663;49.120;9.730;2023-10-13T13:01:20;6.70;;;2.50;;
9254;SDS011;4663;49.120;9.730;2023-10-13T13:03:47;5.25;;;2.28;;
9254;SDS011;4663;49.120;9.730;2023-10-13T13:06:19;4.72;;;2.35;;
9254;SDS011;4663;49.120;9.730;2023-10-13T13:08:56;3.65;;;2.30;;
9254;SDS011;4663;49.120;9.730;2023-10-13T13:11:22;4.07;;;2.13;;
9254;SDS011;4663;49.120;9.730;2023-10-13T13:13:49;3.03;;;2.30;;
9254;SDS011;4663;49.120;9.730;2023-10-13T13:16:18;4.43;;;2.08;;
9254;SDS011;4663;49.120;9.730;2023-10-13T13:18:45;5.32;;;2.08;;
9254;SDS011;4663;49.120;9.730;2023-10-13T13:21:11;4.35;;;2.40;;
9254;SDS011;4663;49.120;9.730;2023-10-13T13:23:46;4.72;;;2.40;;
9254;SDS011;4663;49.120;9.730;2023-10-13T13:26:12;5.15;;;2.20;;
9254;SDS011;4663;49.120;9.730;2023-10-13T13:28:46;4.30;;;1.88;;
9254;SDS011;4663;49.120;9.730;2023-10-13T13:31:19;5.82;;;2.00;;
9254;SDS011;4663;49.120;9.730;2023-10-13T13:33:50;6.10;;;3.25;;
9254;SDS011;4663;49.120;9.730;2023-10-13T13:36:16;3.17;;;2.20;;
9254;SDS011;4663;49.120;9.730;2023-10-13T13:38:42;5.80;;;2.58;;
9254;SDS011;4663;49.120;9.730;2023-10-13T13:41:12;7.97;;;4.07;;
9254;SDS011;4663;49.120;9.730;2023-10-13T13:43:43;6.00;;;2.83;;
9254;SDS011;4663;49.120;9.730;2023-10-13T13:46:15;10.27;;;2.47;;
9254;SDS011;4663;49.120;9.730;2023-10-13T13:48:42;9.48;;;2.47;;
9254;SDS011;4663;49.120;9.730;2023-10-13T13:51:08;10.80;;;2.50;;
9254;SDS011;4663;49.120;9.730;2023-10-13T13:53:43;8.55;;;3.17;;
9254;SDS011;4663;49.120;9.730;2023-10-13T13:56:13;11.02;;;3.38;;
9254;SDS011;4663;49.120;9.730;2023-10-13T13:58:43;7.43;;;2.70;;
9254;SDS011;4663;49.120;9.730;2023-10-13T14:01:13;15.13;;;3.15;;
9254;SDS011;4663;49.120;9.730;2023-10-13T14:03:47;14.80;;;3.08;;
9254;SDS011;4663;49.120;9.730;2023-10-13T14:06:15;10.98;;;2.92;;
9254;SDS011;4663;49.120;9.730;2023-10-13T14:08:48;14.90;;;3.13;;
9254;SDS011;4663;49.120;9.730;2023-10-13T14:11:17;11.73;;;2.75;;
9254;SDS011;4663;49.120;9.730;2023-10-13T14:16:46;11.48;;;2.47;;
9254;SDS011;4663;49.120;9.730;2023-10-13T14:19:14;9.00;;;3.13;;
9254;SDS011;4663;49.120;9.730;2023-10-13T14:21:51;11.48;;;3.03;;
9254;SDS011;4663;49.120;9.730;2023-10-13T14:24:31;10.52;;;3.13;;
9254;SDS011;4663;49.120;9.730;2023-10-13T14:27:01;9.02;;;3.08;;
9254;SDS011;4663;49.120;9.730;2023-10-13T14:29:47;21.60;;;3.35;;
9254;SDS011;4663;49.120;9.730;2023-10-13T14:32:14;21.63;;;4.07;;
9254;SDS011;4663;49.120;9.730;2023-10-13T14:34:40;8.52;;;3.25;;
9254;SDS011;4663;49.120;9.730;2023-10-13T14:37:10;15.60;;;2.92;;
9254;SDS011;4663;49.120;9.730;2023-10-13T14:39:39;14.30;;;2.95;;
9254;SDS011;4663;49.120;9.730;2023-10-13T14:42:05;10.13;;;3.03;;
9254;SDS011;4663;49.120;9.730;2023-10-13T14:44:33;11.02;;;2.92;;
9254;SDS011;4663;49.120;9.730;2023-10-13T14:47:00;11.02;;;2.70;;
9254;SDS011;4663;49.120;9.730;2023-10-13T14:49:26;23.27;;;3.67;;
9254;SDS011;4663;49.120;9.730;2023-10-13T14:51:52;14.15;;;2.90;;
9254;SDS011;4663;49.120;9.730;2023-10-13T14:54:20;9.70;;;3.35;;
9254;SDS011;4663;49.120;9.730;2023-10-13T14:56:57;12.52;;;2.92;;
9254;SDS011;4663;49.120;9.730;2023-10-13T14:59:29;20.55;;;3.92;;
9254;SDS011;4663;49.120;9.730;2023-10-13T15:01:58;18.55;;;3.67;;
9254;SDS011;4663;49.120;9.730;2023-10-13T15:04:24;12.02;;;3.00;;
9254;SDS011;4663;49.120;9.730;2023-10-13T15:06:50;34.17;;;4.93;;
9254;SDS011;4663;49.120;9.730;2023-10-13T15:09:15;31.23;;;5.35;;
9254;SDS011;4663;49.120;9.730;2023-10-13T15:11:48;21.38;;;4.68;;
9254;SDS011;4663;49.120;9.730;2023-10-13T15:14:17;22.17;;;4.07;;
9254;SDS011;4663;49.120;9.730;2023-10-13T15:16:45;29.05;;;5.00;;
9254;SDS011;4663;49.120;9.730;2023-10-13T15:19:11;39.47;;;6.57;;
9254;SDS011;4663;49.120;9.730;2023-10-13T15:21:37;31.90;;;5.75;;
9254;SDS011;4663;49.120;9.730;2023-10-13T15:24:05;20.65;;;3.95;;
9254;SDS011;4663;49.120;9.730;2023-10-13T15:26:47;5.90;;;2.20;;
9254;SDS011;4663;49.120;9.730;2023-10-13T15:29:19;4.50;;;2.33;;
9254;SDS011;4663;49.120;9.730;2023-10-13T15:32:00;5.50;;;2.30;;
9254;SDS011;4663;49.120;9.730;2023-10-13T15:34:26;3.20;;;2.40;;
9254;SDS011;4663;49.120;9.730;2023-10-13T15:36:53;4.55;;;2.45;;
9254;SDS011;4663;49.120;9.730;2023-10-13T15:39:20;7.05;;;3.03;;
9254;SDS011;4663;49.120;9.730;2023-10-13T15:41:49;14.43;;;3.60;;
9254;SDS011;4663;49.120;9.730;2023-10-13T15:44:23;12.45;;;2.90;;
9254;SDS011;4663;49.120;9.730;2023-10-13T15:46:53;10.93;;;2.70;;
9254;SDS011;4663;49.120;9.730;2023-10-13T15:49:21;7.97;;;2.67;;
9254;SDS011;4663;49.120;9.730;2023-10-13T15:51:47;7.35;;;2.97;;
9254;SDS011;4663;49.120;9.730;2023-10-13T15:54:14;3.25;;;2.20;;
9254;SDS011;4663;49.120;9.730;2023-10-13T15:56:46;5.22;;;2.28;;
9254;SDS011;4663;49.120;9.730;2023-10-13T15:59:13;4.03;;;2.25;;
9254;SDS011;4663;49.120;9.730;2023-10-13T16:01:39;5.53;;;2.30;;
9254;SDS011;4663;49.120;9.730;2023-10-13T16:04:05;23.42;;;2.70;;
9254;SDS011;4663;49.120;9.730;2023-10-13T16:06:42;36.17;;;4.38;;